sensor_id;sensor_type;location;lat;lon;timestamp;temperature;humidity
14119;DHT22;7138;49.246;9.100;2023-04-15T00:00:11;4.90;99.90
14119;DHT22;7138;49.246;9.100;2023-04-15T00:02:37;4.90;99.90
14119;DHT22;7138;49.246;9.100;2023-04-15T00:05:04;4.90;99.90
14119;DHT22;7138;49.246;9.100;2023-04-15T00:07:30;4.90;99.90
14119;DHT22;7138;49.246;9.100;2023-04-15T00:09:57;4.80;99.90
14119;DHT22;7138;49.246;9.100;2023-04-15T00:12:24;4.70;99.90
14119;DHT22;7138;49.246;9.100;2023-04-15T00:14:50;4.70;99.90
14119;DHT22;7138;49.246;9.100;2023-04-15T00:17:18;4.60;99.90
14119;DHT22;7138;49.246;9.100;2023-04-15T00:19:43;4.60;99.90
14119;DHT22;7138;49.246;9.100;2023-04-15T00:22:10;4.50;99.90
14119;DHT22;7138;49.246;9.100;2023-04-15T00:24:36;4.40;99.90
14119;DHT22;7138;49.246;9.100;2023-04-15T00:27:02;4.40;99.90
14119;DHT22;7138;49.246;9.100;2023-04-15T00:29:28;4.40;99.90
14119;DHT22;7138;49.246;9.100;2023-04-15T00:31:55;4.30;99.90
14119;DHT22;7138;49.246;9.100;2023-04-15T00:34:23;4.30;99.90
14119;DHT22;7138;49.246;9.100;2023-04-15T00:36:49;4.40;99.90
14119;DHT22;7138;49.246;9.100;2023-04-15T00:39:17;4.40;99.90
14119;DHT22;7138;49.246;9.100;2023-04-15T00:41:43;4.30;99.90
14119;DHT22;7138;49.246;9.100;2023-04-15T00:44:09;4.20;99.90
14119;DHT22;7138;49.246;9.100;2023-04-15T00:46:36;4.00;99.90
14119;DHT22;7138;49.246;9.100;2023-04-15T00:49:04;3.90;99.90
14119;DHT22;7138;49.246;9.100;2023-04-15T00:51:32;4.00;99.90
14119;DHT22;7138;49.246;9.100;2023-04-15T00:54:00;3.90;99.90
14119;DHT22;7138;49.246;9.100;2023-04-15T00:56:28;3.90;99.90
14119;DHT22;7138;49.246;9.100;2023-04-15T00:58:54;3.80;99.90
14119;DHT22;7138;49.246;9.100;2023-04-15T01:01:25;3.70;99.90
14119;DHT22;7138;49.246;9.100;2023-04-15T01:03:51;3.60;99.90
14119;DHT22;7138;49.246;9.100;2023-04-15T01:06:17;3.50;99.90
14119;DHT22;7138;49.246;9.100;2023-04-15T01:08:44;3.50;99.90
14119;DHT22;7138;49.246;9.100;2023-04-15T01:11:11;3.50;99.90
14119;DHT22;7138;49.246;9.100;2023-04-15T01:13:38;3.50;99.90
14119;DHT22;7138;49.246;9.100;2023-04-15T01:16:05;3.50;99.90
14119;DHT22;7138;49.246;9.100;2023-04-15T01:18:32;3.50;99.90
14119;DHT22;7138;49.246;9.100;2023-04-15T01:20:59;3.40;99.90
14119;DHT22;7138;49.246;9.100;2023-04-15T01:23:29;3.40;99.90
14119;DHT22;7138;49.246;9.100;2023-04-15T01:25:56;3.30;99.90
14119;DHT22;7138;49.246;9.100;2023-04-15T01:28:23;3.30;99.90
14119;DHT22;7138;49.246;9.100;2023-04-15T01:30:50;3.20;99.90
14119;DHT22;7138;49.246;9.100;2023-04-15T01:33:29;3.20;99.90
14119;DHT22;7138;49.246;9.100;2023-04-15T01:35:55;3.30;99.90
14119;DHT22;7138;49.246;9.100;2023-04-15T01:38:22;3.40;99.90
14119;DHT22;7138;49.246;9.100;2023-04-15T01:40:48;3.50;99.90
14119;DHT22;7138;49.246;9.100;2023-04-15T01:43:16;3.60;99.90
14119;DHT22;7138;49.246;9.100;2023-04-15T01:45:42;3.50;99.90
14119;DHT22;7138;49.246;9.100;2023-04-15T01:48:07;3.40;99.90
14119;DHT22;7138;49.246;9.100;2023-04-15T01:50:34;3.30;99.90
14119;DHT22;7138;49.246;9.100;2023-04-15T01:53:01;3.30;99.90
14119;DHT22;7138;49.246;9.100;2023-04-15T01:55:27;3.30;99.90
14119;DHT22;7138;49.246;9.100;2023-04-15T01:57:52;3.30;99.90
14119;DHT22;7138;49.246;9.100;2023-04-15T02:00:20;3.30;99.90
14119;DHT22;7138;49.246;9.100;2023-04-15T02:02:46;3.20;99.90
14119;DHT22;7138;49.246;9.100;2023-04-15T02:05:12;3.20;99.90
14119;DHT22;7138;49.246;9.100;2023-04-15T02:07:38;3.10;99.90
14119;DHT22;7138;49.246;9.100;2023-04-15T02:10:05;3.10;99.90
14119;DHT22;7138;49.246;9.100;2023-04-15T02:12:31;3.00;99.90
14119;DHT22;7138;49.246;9.100;2023-04-15T02:14:57;3.10;99.90
14119;DHT22;7138;49.246;9.100;2023-04-15T02:17:24;3.20;99.90
14119;DHT22;7138;49.246;9.100;2023-04-15T02:19:50;3.20;99.90
14119;DHT22;7138;49.246;9.100;2023-04-15T02:22:16;3.10;99.90
14119;DHT22;7138;49.246;9.100;2023-04-15T02:24:42;3.10;99.90
14119;DHT22;7138;49.246;9.100;2023-04-15T02:27:10;3.10;99.90
14119;DHT22;7138;49.246;9.100;2023-04-15T02:29:40;3.10;99.90
14119;DHT22;7138;49.246;9.100;2023-04-15T02:32:07;3.10;99.90
14119;DHT22;7138;49.246;9.100;2023-04-15T02:34:34;3.00;99.90
14119;DHT22;7138;49.246;9.100;2023-04-15T02:37:02;2.90;99.90
14119;DHT22;7138;49.246;9.100;2023-04-15T02:39:28;2.80;99.90
14119;DHT22;7138;49.246;9.100;2023-04-15T02:41:54;2.80;99.90
14119;DHT22;7138;49.246;9.100;2023-04-15T02:44:19;2.80;99.90
14119;DHT22;7138;49.246;9.100;2023-04-15T02:46:47;2.70;99.90
14119;DHT22;7138;49.246;9.100;2023-04-15T02:49:15;2.60;99.90
14119;DHT22;7138;49.246;9.100;2023-04-15T02:51:42;2.60;99.90
14119;DHT22;7138;49.246;9.100;2023-04-15T02:54:12;2.60;99.90
14119;DHT22;7138;49.246;9.100;2023-04-15T02:56:38;2.60;99.90
14119;DHT22;7138;49.246;9.100;2023-04-15T02:59:03;2.50;99.90
14119;DHT22;7138;49.246;9.100;2023-04-15T03:01:29;2.40;99.90
14119;DHT22;7138;49.246;9.100;2023-04-15T03:03:55;2.40;99.90
14119;DHT22;7138;49.246;9.100;2023-04-15T03:06:24;2.40;99.90
14119;DHT22;7138;49.246;9.100;2023-04-15T03:08:52;2.40;99.90
14119;DHT22;7138;49.246;9.100;2023-04-15T03:11:18;2.40;99.90
14119;DHT22;7138;49.246;9.100;2023-04-15T03:13:44;2.50;99.90
14119;DHT22;7138;49.246;9.100;2023-04-15T03:16:10;2.50;99.90
14119;DHT22;7138;49.246;9.100;2023-04-15T03:18:36;2.70;99.90
14119;DHT22;7138;49.246;9.100;2023-04-15T03:21:03;2.70;99.90
14119;DHT22;7138;49.246;9.100;2023-04-15T03:23:30;2.70;99.90
14119;DHT22;7138;49.246;9.100;2023-04-15T03:26:00;2.70;99.90
14119;DHT22;7138;49.246;9.100;2023-04-15T03:28:26;2.80;99.90
14119;DHT22;7138;49.246;9.100;2023-04-15T03:30:54;2.80;99.90
14119;DHT22;7138;49.246;9.100;2023-04-15T03:33:20;2.80;99.90
14119;DHT22;7138;49.246;9.100;2023-04-15T03:35:46;2.80;99.90
14119;DHT22;7138;49.246;9.100;2023-04-15T03:38:12;2.80;99.90
14119;DHT22;7138;49.246;9.100;2023-04-15T03:40:37;2.80;99.90
14119;DHT22;7138;49.246;9.100;2023-04-15T03:43:06;2.80;99.90
14119;DHT22;7138;49.246;9.100;2023-04-15T03:45:32;2.80;99.90
14119;DHT22;7138;49.246;9.100;2023-04-15T03:47:58;2.80;99.90
14119;DHT22;7138;49.246;9.100;2023-04-15T03:50:24;2.80;99.90
14119;DHT22;7138;49.246;9.100;2023-04-15T03:52:50;2.70;99.90
14119;DHT22;7138;49.246;9.100;2023-04-15T03:55:16;2.70;99.90
14119;DHT22;7138;49.246;9.100;2023-04-15T03:57:42;2.70;99.90
14119;DHT22;7138;49.246;9.100;2023-04-15T04:00:09;2.70;99.90
14119;DHT22;7138;49.246;9.100;2023-04-15T04:02:36;2.70;99.90
14119;DHT22;7138;49.246;9.100;2023-04-15T04:05:02;2.60;99.90
14119;DHT22;7138;49.246;9.100;2023-04-15T04:07:28;2.60;99.90
14119;DHT22;7138;49.246;9.100;2023-04-15T04:09:56;2.60;99.90
14119;DHT22;7138;49.246;9.100;2023-04-15T04:12:22;2.60;99.90
14119;DHT22;7138;49.246;9.100;2023-04-15T04:14:48;2.60;99.90
14119;DHT22;7138;49.246;9.100;2023-04-15T04:17:15;2.60;99.90
14119;DHT22;7138;49.246;9.100;2023-04-15T04:19:41;2.60;99.90
14119;DHT22;7138;49.246;9.100;2023-04-15T04:22:07;2.60;99.90
14119;DHT22;7138;49.246;9.100;2023-04-15T04:24:32;2.60;99.90
14119;DHT22;7138;49.246;9.100;2023-04-15T04:26:58;2.60;99.90
14119;DHT22;7138;49.246;9.100;2023-04-15T04:29:25;2.60;99.90
14119;DHT22;7138;49.246;9.100;2023-04-15T04:31:51;2.60;99.90
14119;DHT22;7138;49.246;9.100;2023-04-15T04:34:18;2.60;99.90
14119;DHT22;7138;49.246;9.100;2023-04-15T04:36:44;2.70;99.90
14119;DHT22;7138;49.246;9.100;2023-04-15T04:39:10;2.60;99.90
14119;DHT22;7138;49.246;9.100;2023-04-15T04:41:36;2.60;99.90
14119;DHT22;7138;49.246;9.100;2023-04-15T04:44:02;2.50;99.90
14119;DHT22;7138;49.246;9.100;2023-04-15T04:46:28;2.40;99.90
14119;DHT22;7138;49.246;9.100;2023-04-15T04:48:54;2.30;99.90
14119;DHT22;7138;49.246;9.100;2023-04-15T04:51:23;2.40;99.90
14119;DHT22;7138;49.246;9.100;2023-04-15T04:53:49;2.30;99.90
14119;DHT22;7138;49.246;9.100;2023-04-15T04:56:15;2.30;99.90
14119;DHT22;7138;49.246;9.100;2023-04-15T04:58:41;2.30;99.90
14119;DHT22;7138;49.246;9.100;2023-04-15T05:01:07;2.20;99.90
14119;DHT22;7138;49.246;9.100;2023-04-15T05:03:33;2.30;99.90
14119;DHT22;7138;49.246;9.100;2023-04-15T05:05:59;2.30;99.90
14119;DHT22;7138;49.246;9.100;2023-04-15T05:08:26;2.30;99.90
14119;DHT22;7138;49.246;9.100;2023-04-15T05:10:52;2.30;99.90
14119;DHT22;7138;49.246;9.100;2023-04-15T05:13:18;2.30;99.90
14119;DHT22;7138;49.246;9.100;2023-04-15T05:15:46;2.30;99.90
14119;DHT22;7138;49.246;9.100;2023-04-15T05:18:11;2.30;99.90
14119;DHT22;7138;49.246;9.100;2023-04-15T05:20:37;2.30;99.90
14119;DHT22;7138;49.246;9.100;2023-04-15T05:23:03;2.40;99.90
14119;DHT22;7138;49.246;9.100;2023-04-15T05:25:30;2.40;99.90
14119;DHT22;7138;49.246;9.100;2023-04-15T05:27:56;2.40;99.90
14119;DHT22;7138;49.246;9.100;2023-04-15T05:30:22;2.40;99.90
14119;DHT22;7138;49.246;9.100;2023-04-15T05:32:48;2.40;99.90
14119;DHT22;7138;49.246;9.100;2023-04-15T05:35:14;2.50;99.90
14119;DHT22;7138;49.246;9.100;2023-04-15T05:37:40;2.50;99.90
14119;DHT22;7138;49.246;9.100;2023-04-15T05:40:07;2.60;99.90
14119;DHT22;7138;49.246;9.100;2023-04-15T05:42:36;2.60;99.90
14119;DHT22;7138;49.246;9.100;2023-04-15T05:45:02;2.60;99.90
14119;DHT22;7138;49.246;9.100;2023-04-15T05:47:30;2.60;99.90
14119;DHT22;7138;49.246;9.100;2023-04-15T05:49:56;2.70;99.90
14119;DHT22;7138;49.246;9.100;2023-04-15T05:52:23;2.90;99.90
14119;DHT22;7138;49.246;9.100;2023-04-15T05:54:49;3.20;99.90
14119;DHT22;7138;49.246;9.100;2023-04-15T05:57:15;3.30;99.90
14119;DHT22;7138;49.246;9.100;2023-04-15T05:59:42;3.30;99.90
14119;DHT22;7138;49.246;9.100;2023-04-15T06:02:09;3.40;99.90
14119;DHT22;7138;49.246;9.100;2023-04-15T06:04:35;3.50;99.90
14119;DHT22;7138;49.246;9.100;2023-04-15T06:07:01;3.50;99.90
14119;DHT22;7138;49.246;9.100;2023-04-15T06:09:27;3.40;99.90
14119;DHT22;7138;49.246;9.100;2023-04-15T06:11:53;3.50;99.90
14119;DHT22;7138;49.246;9.100;2023-04-15T06:14:20;3.60;99.90
14119;DHT22;7138;49.246;9.100;2023-04-15T06:16:47;3.70;99.90
14119;DHT22;7138;49.246;9.100;2023-04-15T06:19:13;3.50;99.90
14119;DHT22;7138;49.246;9.100;2023-04-15T06:21:39;3.60;99.90
14119;DHT22;7138;49.246;9.100;2023-04-15T06:24:05;3.80;99.90
14119;DHT22;7138;49.246;9.100;2023-04-15T06:26:32;4.00;99.90
14119;DHT22;7138;49.246;9.100;2023-04-15T06:28:57;4.10;99.90
14119;DHT22;7138;49.246;9.100;2023-04-15T06:31:23;4.10;99.90
14119;DHT22;7138;49.246;9.100;2023-04-15T06:33:50;4.30;99.90
14119;DHT22;7138;49.246;9.100;2023-04-15T06:36:16;4.50;99.90
14119;DHT22;7138;49.246;9.100;2023-04-15T06:38:42;4.60;99.90
14119;DHT22;7138;49.246;9.100;2023-04-15T06:41:08;4.40;99.90
14119;DHT22;7138;49.246;9.100;2023-04-15T06:43:34;4.60;99.90
14119;DHT22;7138;49.246;9.100;2023-04-15T06:46:00;4.90;99.90
14119;DHT22;7138;49.246;9.100;2023-04-15T06:48:25;5.00;99.90
14119;DHT22;7138;49.246;9.100;2023-04-15T06:50:53;5.10;99.90
14119;DHT22;7138;49.246;9.100;2023-04-15T06:53:19;5.30;99.90
14119;DHT22;7138;49.246;9.100;2023-04-15T06:55:45;5.40;99.90
14119;DHT22;7138;49.246;9.100;2023-04-15T06:58:11;5.50;99.90
14119;DHT22;7138;49.246;9.100;2023-04-15T07:00:36;5.70;99.90
14119;DHT22;7138;49.246;9.100;2023-04-15T07:03:03;5.70;99.90
14119;DHT22;7138;49.246;9.100;2023-04-15T07:05:29;5.90;99.90
14119;DHT22;7138;49.246;9.100;2023-04-15T07:07:58;6.00;99.90
14119;DHT22;7138;49.246;9.100;2023-04-15T07:10:24;6.10;99.90
14119;DHT22;7138;49.246;9.100;2023-04-15T07:12:50;6.20;99.90
14119;DHT22;7138;49.246;9.100;2023-04-15T07:15:16;6.30;99.90
14119;DHT22;7138;49.246;9.100;2023-04-15T07:17:42;6.10;99.90
14119;DHT22;7138;49.246;9.100;2023-04-15T07:20:09;6.40;99.90
14119;DHT22;7138;49.246;9.100;2023-04-15T07:22:35;6.90;99.90
14119;DHT22;7138;49.246;9.100;2023-04-15T07:25:03;7.00;99.90
14119;DHT22;7138;49.246;9.100;2023-04-15T07:27:30;7.50;99.90
14119;DHT22;7138;49.246;9.100;2023-04-15T07:29:56;7.80;99.90
14119;DHT22;7138;49.246;9.100;2023-04-15T07:32:21;8.10;99.90
14119;DHT22;7138;49.246;9.100;2023-04-15T07:34:47;8.10;99.90
14119;DHT22;7138;49.246;9.100;2023-04-15T07:37:13;8.20;99.90
14119;DHT22;7138;49.246;9.100;2023-04-15T07:39:40;8.30;99.90
14119;DHT22;7138;49.246;9.100;2023-04-15T07:42:07;8.50;99.90
14119;DHT22;7138;49.246;9.100;2023-04-15T07:44:33;8.80;99.90
14119;DHT22;7138;49.246;9.100;2023-04-15T07:47:01;8.90;99.90
14119;DHT22;7138;49.246;9.100;2023-04-15T07:49:27;9.00;99.90
14119;DHT22;7138;49.246;9.100;2023-04-15T07:51:53;9.00;99.90
14119;DHT22;7138;49.246;9.100;2023-04-15T07:54:19;9.00;99.90
14119;DHT22;7138;49.246;9.100;2023-04-15T07:56:45;9.40;99.90
14119;DHT22;7138;49.246;9.100;2023-04-15T07:59:12;9.70;99.90
14119;DHT22;7138;49.246;9.100;2023-04-15T08:01:39;10.10;99.90
14119;DHT22;7138;49.246;9.100;2023-04-15T08:04:05;10.70;99.90
14119;DHT22;7138;49.246;9.100;2023-04-15T08:06:31;10.90;99.90
14119;DHT22;7138;49.246;9.100;2023-04-15T08:08:57;11.00;99.90
14119;DHT22;7138;49.246;9.100;2023-04-15T08:11:23;10.80;99.90
14119;DHT22;7138;49.246;9.100;2023-04-15T08:13:49;11.30;99.90
14119;DHT22;7138;49.246;9.100;2023-04-15T08:16:18;11.50;99.90
14119;DHT22;7138;49.246;9.100;2023-04-15T08:18:49;11.40;99.90
14119;DHT22;7138;49.246;9.100;2023-04-15T08:21:17;11.40;99.90
14119;DHT22;7138;49.246;9.100;2023-04-15T08:23:45;11.20;99.90
14119;DHT22;7138;49.246;9.100;2023-04-15T08:26:12;11.50;99.90
14119;DHT22;7138;49.246;9.100;2023-04-15T08:28:39;11.50;99.90
14119;DHT22;7138;49.246;9.100;2023-04-15T08:31:06;11.00;99.90
14119;DHT22;7138;49.246;9.100;2023-04-15T08:33:34;10.70;99.90
14119;DHT22;7138;49.246;9.100;2023-04-15T08:36:00;11.30;99.90
14119;DHT22;7138;49.246;9.100;2023-04-15T08:38:26;11.00;99.90
14119;DHT22;7138;49.246;9.100;2023-04-15T08:40:52;11.50;99.90
14119;DHT22;7138;49.246;9.100;2023-04-15T08:43:20;11.90;99.90
14119;DHT22;7138;49.246;9.100;2023-04-15T08:45:53;11.80;99.90
14119;DHT22;7138;49.246;9.100;2023-04-15T08:48:20;11.90;99.90
14119;DHT22;7138;49.246;9.100;2023-04-15T08:50:50;11.70;99.90
14119;DHT22;7138;49.246;9.100;2023-04-15T08:53:17;12.00;99.90
14119;DHT22;7138;49.246;9.100;2023-04-15T08:55:44;11.80;99.90
14119;DHT22;7138;49.246;9.100;2023-04-15T08:58:12;11.80;99.90
14119;DHT22;7138;49.246;9.100;2023-04-15T09:00:41;11.80;99.90
14119;DHT22;7138;49.246;9.100;2023-04-15T09:03:07;12.10;99.90
14119;DHT22;7138;49.246;9.100;2023-04-15T09:05:34;12.20;99.90
14119;DHT22;7138;49.246;9.100;2023-04-15T09:08:03;12.70;99.90
14119;DHT22;7138;49.246;9.100;2023-04-15T09:10:30;13.60;99.90
14119;DHT22;7138;49.246;9.100;2023-04-15T09:12:57;13.40;99.90
14119;DHT22;7138;49.246;9.100;2023-04-15T09:15:24;13.30;99.90
14119;DHT22;7138;49.246;9.100;2023-04-15T09:17:52;13.70;99.90
14119;DHT22;7138;49.246;9.100;2023-04-15T09:20:18;13.40;99.90
14119;DHT22;7138;49.246;9.100;2023-04-15T09:22:45;13.10;99.90
14119;DHT22;7138;49.246;9.100;2023-04-15T09:25:26;13.50;99.90
14119;DHT22;7138;49.246;9.100;2023-04-15T09:27:54;13.30;99.90
14119;DHT22;7138;49.246;9.100;2023-04-15T09:30:21;13.50;99.90
14119;DHT22;7138;49.246;9.100;2023-04-15T09:32:49;13.20;99.90
14119;DHT22;7138;49.246;9.100;2023-04-15T09:35:16;12.80;99.90
14119;DHT22;7138;49.246;9.100;2023-04-15T09:37:42;13.10;99.90
14119;DHT22;7138;49.246;9.100;2023-04-15T09:40:09;13.00;99.90
14119;DHT22;7138;49.246;9.100;2023-04-15T09:42:36;13.20;99.90
14119;DHT22;7138;49.246;9.100;2023-04-15T09:45:20;13.50;99.90
14119;DHT22;7138;49.246;9.100;2023-04-15T09:47:46;13.50;99.90
14119;DHT22;7138;49.246;9.100;2023-04-15T09:50:12;13.30;99.90
14119;DHT22;7138;49.246;9.100;2023-04-15T09:52:41;13.40;99.90
14119;DHT22;7138;49.246;9.100;2023-04-15T09:55:08;13.40;99.90
14119;DHT22;7138;49.246;9.100;2023-04-15T09:57:37;13.60;99.90
14119;DHT22;7138;49.246;9.100;2023-04-15T10:00:07;13.60;99.90
14119;DHT22;7138;49.246;9.100;2023-04-15T10:02:36;13.70;99.90
14119;DHT22;7138;49.246;9.100;2023-04-15T10:05:03;13.60;99.90
14119;DHT22;7138;49.246;9.100;2023-04-15T10:07:29;13.40;99.90
14119;DHT22;7138;49.246;9.100;2023-04-15T10:09:55;13.30;99.90
14119;DHT22;7138;49.246;9.100;2023-04-15T10:12:25;13.30;99.90
14119;DHT22;7138;49.246;9.100;2023-04-15T10:14:57;13.90;99.90
14119;DHT22;7138;49.246;9.100;2023-04-15T10:17:25;13.50;99.90
14119;DHT22;7138;49.246;9.100;2023-04-15T10:19:59;13.10;99.90
14119;DHT22;7138;49.246;9.100;2023-04-15T10:22:27;13.30;99.90
14119;DHT22;7138;49.246;9.100;2023-04-15T10:24:55;13.60;99.90
14119;DHT22;7138;49.246;9.100;2023-04-15T10:27:21;14.10;99.90
14119;DHT22;7138;49.246;9.100;2023-04-15T10:29:49;14.40;99.90
14119;DHT22;7138;49.246;9.100;2023-04-15T10:32:18;14.50;99.90
14119;DHT22;7138;49.246;9.100;2023-04-15T10:34:46;14.50;99.90
14119;DHT22;7138;49.246;9.100;2023-04-15T10:37:19;14.40;99.90
14119;DHT22;7138;49.246;9.100;2023-04-15T10:39:46;14.20;99.90
14119;DHT22;7138;49.246;9.100;2023-04-15T10:42:14;14.80;99.90
14119;DHT22;7138;49.246;9.100;2023-04-15T10:44:42;14.60;99.90
14119;DHT22;7138;49.246;9.100;2023-04-15T10:47:11;14.10;99.90
14119;DHT22;7138;49.246;9.100;2023-04-15T10:49:46;14.10;99.90
14119;DHT22;7138;49.246;9.100;2023-04-15T10:52:15;14.20;99.90
14119;DHT22;7138;49.246;9.100;2023-04-15T10:54:43;13.80;99.90
14119;DHT22;7138;49.246;9.100;2023-04-15T10:57:14;13.50;99.90
14119;DHT22;7138;49.246;9.100;2023-04-15T11:00:02;13.40;99.90
14119;DHT22;7138;49.246;9.100;2023-04-15T11:02:54;13.30;99.90
14119;DHT22;7138;49.246;9.100;2023-04-15T11:05:48;13.00;99.90
14119;DHT22;7138;49.246;9.100;2023-04-15T11:08:16;13.10;99.90
14119;DHT22;7138;49.246;9.100;2023-04-15T11:10:52;12.70;99.90
14119;DHT22;7138;49.246;9.100;2023-04-15T11:13:28;12.60;99.90
14119;DHT22;7138;49.246;9.100;2023-04-15T11:16:02;12.40;99.90
14119;DHT22;7138;49.246;9.100;2023-04-15T11:18:30;12.40;99.90
14119;DHT22;7138;49.246;9.100;2023-04-15T11:21:00;12.20;99.90
14119;DHT22;7138;49.246;9.100;2023-04-15T11:23:30;12.40;99.90
14119;DHT22;7138;49.246;9.100;2023-04-15T11:25:59;12.70;99.90
14119;DHT22;7138;49.246;9.100;2023-04-15T11:28:27;13.00;99.90
14119;DHT22;7138;49.246;9.100;2023-04-15T11:30:55;12.90;99.90
14119;DHT22;7138;49.246;9.100;2023-04-15T11:33:22;13.20;99.90
14119;DHT22;7138;49.246;9.100;2023-04-15T11:35:49;13.20;99.90
14119;DHT22;7138;49.246;9.100;2023-04-15T11:38:18;13.30;99.90
14119;DHT22;7138;49.246;9.100;2023-04-15T11:40:44;12.80;99.90
14119;DHT22;7138;49.246;9.100;2023-04-15T11:43:12;12.80;99.90
14119;DHT22;7138;49.246;9.100;2023-04-15T11:45:48;12.70;99.90
14119;DHT22;7138;49.246;9.100;2023-04-15T11:48:16;12.60;99.90
14119;DHT22;7138;49.246;9.100;2023-04-15T11:50:42;12.50;99.90
14119;DHT22;7138;49.246;9.100;2023-04-15T11:53:09;12.70;99.90
14119;DHT22;7138;49.246;9.100;2023-04-15T11:55:47;12.60;99.90
14119;DHT22;7138;49.246;9.100;2023-04-15T11:58:16;12.60;99.90
14119;DHT22;7138;49.246;9.100;2023-04-15T12:00:48;12.90;99.90
14119;DHT22;7138;49.246;9.100;2023-04-15T12:03:24;12.50;99.90
14119;DHT22;7138;49.246;9.100;2023-04-15T12:06:12;12.40;99.90
14119;DHT22;7138;49.246;9.100;2023-04-15T12:08:57;12.20;99.90
14119;DHT22;7138;49.246;9.100;2023-04-15T12:11:40;12.20;99.90
14119;DHT22;7138;49.246;9.100;2023-04-15T12:14:11;12.20;99.90
14119;DHT22;7138;49.246;9.100;2023-04-15T12:16:42;12.10;99.90
14119;DHT22;7138;49.246;9.100;2023-04-15T12:19:12;12.30;99.90
14119;DHT22;7138;49.246;9.100;2023-04-15T12:21:40;12.40;99.90
14119;DHT22;7138;49.246;9.100;2023-04-15T12:24:09;12.30;99.90
14119;DHT22;7138;49.246;9.100;2023-04-15T12:26:43;12.20;99.90
14119;DHT22;7138;49.246;9.100;2023-04-15T12:29:11;12.10;99.90
14119;DHT22;7138;49.246;9.100;2023-04-15T12:31:46;12.00;99.90
14119;DHT22;7138;49.246;9.100;2023-04-15T12:34:15;11.80;99.90
14119;DHT22;7138;49.246;9.100;2023-04-15T12:36:41;11.80;99.90
14119;DHT22;7138;49.246;9.100;2023-04-15T12:39:08;11.90;99.90
14119;DHT22;7138;49.246;9.100;2023-04-15T12:41:34;11.60;99.90
14119;DHT22;7138;49.246;9.100;2023-04-15T12:44:01;11.50;99.90
14119;DHT22;7138;49.246;9.100;2023-04-15T12:46:27;11.50;99.90
14119;DHT22;7138;49.246;9.100;2023-04-15T12:48:53;11.50;99.90
14119;DHT22;7138;49.246;9.100;2023-04-15T12:51:19;11.50;99.90
14119;DHT22;7138;49.246;9.100;2023-04-15T12:53:48;11.40;99.90
14119;DHT22;7138;49.246;9.100;2023-04-15T12:56:14;11.50;99.90
14119;DHT22;7138;49.246;9.100;2023-04-15T12:58:41;11.50;99.90
14119;DHT22;7138;49.246;9.100;2023-04-15T13:01:09;11.50;99.90
14119;DHT22;7138;49.246;9.100;2023-04-15T13:03:35;11.50;99.90
14119;DHT22;7138;49.246;9.100;2023-04-15T13:06:01;11.50;99.90
14119;DHT22;7138;49.246;9.100;2023-04-15T13:08:29;11.50;99.90
14119;DHT22;7138;49.246;9.100;2023-04-15T13:10:55;11.50;99.90
14119;DHT22;7138;49.246;9.100;2023-04-15T13:13:21;11.40;99.90
14119;DHT22;7138;49.246;9.100;2023-04-15T13:15:47;11.50;99.90
14119;DHT22;7138;49.246;9.100;2023-04-15T13:18:14;11.50;99.90
14119;DHT22;7138;49.246;9.100;2023-04-15T13:20:40;11.50;99.90
14119;DHT22;7138;49.246;9.100;2023-04-15T13:23:06;11.50;99.90
14119;DHT22;7138;49.246;9.100;2023-04-15T13:25:32;11.70;99.90
14119;DHT22;7138;49.246;9.100;2023-04-15T13:27:58;11.70;99.90
14119;DHT22;7138;49.246;9.100;2023-04-15T13:30:25;11.60;99.90
14119;DHT22;7138;49.246;9.100;2023-04-15T13:32:52;11.60;99.90
14119;DHT22;7138;49.246;9.100;2023-04-15T13:35:19;11.50;99.90
14119;DHT22;7138;49.246;9.100;2023-04-15T13:37:46;11.50;99.90
14119;DHT22;7138;49.246;9.100;2023-04-15T13:40:12;11.50;99.90
14119;DHT22;7138;49.246;9.100;2023-04-15T13:42:38;11.60;99.90
14119;DHT22;7138;49.246;9.100;2023-04-15T13:45:04;11.60;99.90
14119;DHT22;7138;49.246;9.100;2023-04-15T13:47:31;11.70;99.90
14119;DHT22;7138;49.246;9.100;2023-04-15T13:49:57;11.50;99.90
14119;DHT22;7138;49.246;9.100;2023-04-15T13:52:24;11.60;99.90
14119;DHT22;7138;49.246;9.100;2023-04-15T13:54:50;11.70;99.90
14119;DHT22;7138;49.246;9.100;2023-04-15T13:57:16;11.50;99.90
14119;DHT22;7138;49.246;9.100;2023-04-15T13:59:43;11.30;99.90
14119;DHT22;7138;49.246;9.100;2023-04-15T14:02:08;11.30;99.90
14119;DHT22;7138;49.246;9.100;2023-04-15T14:04:34;11.30;99.90
14119;DHT22;7138;49.246;9.100;2023-04-15T14:07:00;11.20;99.90
14119;DHT22;7138;49.246;9.100;2023-04-15T14:09:28;11.20;99.90
14119;DHT22;7138;49.246;9.100;2023-04-15T14:11:54;11.10;99.90
14119;DHT22;7138;49.246;9.100;2023-04-15T14:14:20;11.00;99.90
14119;DHT22;7138;49.246;9.100;2023-04-15T14:16:46;10.90;99.90
14119;DHT22;7138;49.246;9.100;2023-04-15T14:19:14;11.00;99.90
14119;DHT22;7138;49.246;9.100;2023-04-15T14:21:40;10.90;99.90
14119;DHT22;7138;49.246;9.100;2023-04-15T14:24:06;10.90;99.90
14119;DHT22;7138;49.246;9.100;2023-04-15T14:26:33;10.90;99.90
14119;DHT22;7138;49.246;9.100;2023-04-15T14:28:59;10.90;99.90
14119;DHT22;7138;49.246;9.100;2023-04-15T14:31:25;10.90;99.90
14119;DHT22;7138;49.246;9.100;2023-04-15T14:33:51;10.90;99.90
14119;DHT22;7138;49.246;9.100;2023-04-15T14:36:17;10.90;99.90
14119;DHT22;7138;49.246;9.100;2023-04-15T14:38:43;10.90;99.90
14119;DHT22;7138;49.246;9.100;2023-04-15T14:41:09;10.90;99.90
14119;DHT22;7138;49.246;9.100;2023-04-15T14:43:36;10.80;99.90
14119;DHT22;7138;49.246;9.100;2023-04-15T14:46:02;10.60;99.90
14119;DHT22;7138;49.246;9.100;2023-04-15T14:48:30;10.40;99.90
14119;DHT22;7138;49.246;9.100;2023-04-15T14:50:56;10.30;99.90
14119;DHT22;7138;49.246;9.100;2023-04-15T14:53:22;10.30;99.90
14119;DHT22;7138;49.246;9.100;2023-04-15T14:55:48;10.30;99.90
14119;DHT22;7138;49.246;9.100;2023-04-15T14:58:14;10.30;99.90
14119;DHT22;7138;49.246;9.100;2023-04-15T15:00:42;10.20;99.90
14119;DHT22;7138;49.246;9.100;2023-04-15T15:03:09;10.00;99.90
14119;DHT22;7138;49.246;9.100;2023-04-15T15:05:39;9.80;99.90
14119;DHT22;7138;49.246;9.100;2023-04-15T15:08:06;9.70;99.90
14119;DHT22;7138;49.246;9.100;2023-04-15T15:10:33;9.50;99.90
14119;DHT22;7138;49.246;9.100;2023-04-15T15:13:01;9.40;99.90
14119;DHT22;7138;49.246;9.100;2023-04-15T15:15:27;9.30;99.90
14119;DHT22;7138;49.246;9.100;2023-04-15T15:17:54;9.30;99.90
14119;DHT22;7138;49.246;9.100;2023-04-15T15:20:20;9.30;99.90
14119;DHT22;7138;49.246;9.100;2023-04-15T15:22:47;9.30;99.90
14119;DHT22;7138;49.246;9.100;2023-04-15T15:25:13;9.30;99.90
14119;DHT22;7138;49.246;9.100;2023-04-15T15:27:39;9.20;99.90
14119;DHT22;7138;49.246;9.100;2023-04-15T15:30:05;9.30;99.90
14119;DHT22;7138;49.246;9.100;2023-04-15T15:32:32;9.30;99.90
14119;DHT22;7138;49.246;9.100;2023-04-15T15:34:59;9.20;99.90
14119;DHT22;7138;49.246;9.100;2023-04-15T15:37:25;9.30;99.90
14119;DHT22;7138;49.246;9.100;2023-04-15T15:39:51;9.20;99.90
14119;DHT22;7138;49.246;9.100;2023-04-15T15:42:18;9.20;99.90
14119;DHT22;7138;49.246;9.100;2023-04-15T15:44:44;9.10;99.90
14119;DHT22;7138;49.246;9.100;2023-04-15T15:47:10;9.10;99.90
14119;DHT22;7138;49.246;9.100;2023-04-15T15:49:36;9.10;99.90
14119;DHT22;7138;49.246;9.100;2023-04-15T15:52:03;9.00;99.90
14119;DHT22;7138;49.246;9.100;2023-04-15T15:54:30;9.00;99.90